sensor_id;sensor_type;location;lat;lon;timestamp;P1;durP1;ratioP1;P2;durP2;ratioP2
52414;SDS011;38340;52.964;6.086;2022-09-01T00:01:43;4.32;;;3.40;;
52414;SDS011;38340;52.964;6.086;2022-09-01T00:04:12;6.60;;;3.60;;
52414;SDS011;38340;52.964;6.086;2022-09-01T00:06:40;5.55;;;3.20;;
52414;SDS011;38340;52.964;6.086;2022-09-01T00:09:09;5.53;;;3.38;;
52414;SDS011;38340;52.964;6.086;2022-09-01T00:11:37;8.52;;;3.38;;
52414;SDS011;38340;52.964;6.086;2022-09-01T00:14:04;5.05;;;3.03;;
52414;SDS011;38340;52.964;6.086;2022-09-01T00:16:32;5.85;;;3.53;;
52414;SDS011;38340;52.964;6.086;2022-09-01T00:18:57;12.88;;;3.50;;
52414;SDS011;38340;52.964;6.086;2022-09-01T00:21:25;5.72;;;3.22;;
52414;SDS011;38340;52.964;6.086;2022-09-01T00:23:54;7.55;;;3.50;;
52414;SDS011;38340;52.964;6.086;2022-09-01T00:26:21;6.70;;;3.50;;
52414;SDS011;38340;52.964;6.086;2022-09-01T00:28:47;7.85;;;3.78;;
52414;SDS011;38340;52.964;6.086;2022-09-01T00:31:13;6.38;;;3.40;;
52414;SDS011;38340;52.964;6.086;2022-09-01T00:33:40;5.72;;;3.38;;
52414;SDS011;38340;52.964;6.086;2022-09-01T00:36:06;6.00;;;3.42;;
52414;SDS011;38340;52.964;6.086;2022-09-01T00:38:32;4.38;;;3.30;;
52414;SDS011;38340;52.964;6.086;2022-09-01T00:40:59;4.03;;;3.13;;
52414;SDS011;38340;52.964;6.086;2022-09-01T00:46:14;6.07;;;3.25;;
52414;SDS011;38340;52.964;6.086;2022-09-01T00:48:45;5.88;;;3.55;;
52414;SDS011;38340;52.964;6.086;2022-09-01T00:51:20;5.28;;;3.13;;
52414;SDS011;38340;52.964;6.086;2022-09-01T00:53:46;6.07;;;3.42;;
52414;SDS011;38340;52.964;6.086;2022-09-01T00:56:12;6.18;;;3.50;;
52414;SDS011;38340;52.964;6.086;2022-09-01T00:58:38;5.93;;;3.60;;
52414;SDS011;38340;52.964;6.086;2022-09-01T01:01:05;5.32;;;3.63;;
52414;SDS011;38340;52.964;6.086;2022-09-01T01:03:32;8.90;;;3.75;;
52414;SDS011;38340;52.964;6.086;2022-09-01T01:05:59;4.57;;;3.03;;
52414;SDS011;38340;52.964;6.086;2022-09-01T01:08:32;4.32;;;3.20;;
52414;SDS011;38340;52.964;6.086;2022-09-01T01:11:03;7.30;;;3.00;;
52414;SDS011;38340;52.964;6.086;2022-09-01T01:13:35;6.78;;;3.20;;
52414;SDS011;38340;52.964;6.086;2022-09-01T01:16:23;5.70;;;3.10;;
52414;SDS011;38340;52.964;6.086;2022-09-01T01:18:50;4.45;;;3.35;;
52414;SDS011;38340;52.964;6.086;2022-09-01T01:21:18;4.88;;;3.28;;
52414;SDS011;38340;52.964;6.086;2022-09-01T01:26:49;4.43;;;3.03;;
52414;SDS011;38340;52.964;6.086;2022-09-01T01:29:16;4.50;;;3.42;;
52414;SDS011;38340;52.964;6.086;2022-09-01T01:31:43;3.90;;;3.22;;
52414;SDS011;38340;52.964;6.086;2022-09-01T01:34:11;5.40;;;3.30;;
52414;SDS011;38340;52.964;6.086;2022-09-01T01:36:37;4.40;;;3.63;;
52414;SDS011;38340;52.964;6.086;2022-09-01T01:39:23;6.80;;;3.50;;
52414;SDS011;38340;52.964;6.086;2022-09-01T01:41:50;4.57;;;3.22;;
52414;SDS011;38340;52.964;6.086;2022-09-01T01:44:18;5.65;;;3.33;;
52414;SDS011;38340;52.964;6.086;2022-09-01T01:46:47;5.05;;;3.22;;
52414;SDS011;38340;52.964;6.086;2022-09-01T01:49:15;4.70;;;2.97;;
52414;SDS011;38340;52.964;6.086;2022-09-01T01:51:44;6.80;;;3.53;;
52414;SDS011;38340;52.964;6.086;2022-09-01T01:54:11;4.28;;;3.08;;
52414;SDS011;38340;52.964;6.086;2022-09-01T01:56:37;5.32;;;3.40;;
52414;SDS011;38340;52.964;6.086;2022-09-01T01:59:06;6.85;;;3.20;;
52414;SDS011;38340;52.964;6.086;2022-09-01T02:01:40;4.15;;;3.13;;
52414;SDS011;38340;52.964;6.086;2022-09-01T02:04:07;4.90;;;3.50;;
52414;SDS011;38340;52.964;6.086;2022-09-01T02:06:35;5.07;;;4.00;;
52414;SDS011;38340;52.964;6.086;2022-09-01T02:09:05;4.30;;;3.35;;
52414;SDS011;38340;52.964;6.086;2022-09-01T02:11:32;4.63;;;3.17;;
52414;SDS011;38340;52.964;6.086;2022-09-01T02:14:02;4.60;;;3.22;;
52414;SDS011;38340;52.964;6.086;2022-09-01T02:16:29;6.20;;;3.30;;
52414;SDS011;38340;52.964;6.086;2022-09-01T02:18:57;4.63;;;3.80;;
52414;SDS011;38340;52.964;6.086;2022-09-01T02:21:24;4.22;;;3.40;;
52414;SDS011;38340;52.964;6.086;2022-09-01T02:23:55;5.63;;;3.55;;
52414;SDS011;38340;52.964;6.086;2022-09-01T02:26:29;4.53;;;3.00;;
52414;SDS011;38340;52.964;6.086;2022-09-01T02:29:03;5.45;;;3.70;;
52414;SDS011;38340;52.964;6.086;2022-09-01T02:31:31;4.47;;;3.42;;
52414;SDS011;38340;52.964;6.086;2022-09-01T02:34:05;4.30;;;3.60;;
52414;SDS011;38340;52.964;6.086;2022-09-01T02:36:38;5.97;;;3.50;;
52414;SDS011;38340;52.964;6.086;2022-09-01T02:39:15;5.75;;;3.42;;
52414;SDS011;38340;52.964;6.086;2022-09-01T02:41:56;6.18;;;3.45;;
52414;SDS011;38340;52.964;6.086;2022-09-01T02:44:22;5.32;;;3.28;;
52414;SDS011;38340;52.964;6.086;2022-09-01T02:46:48;3.78;;;3.10;;
52414;SDS011;38340;52.964;6.086;2022-09-01T02:49:16;5.05;;;3.17;;
52414;SDS011;38340;52.964;6.086;2022-09-01T02:51:46;8.15;;;3.85;;
52414;SDS011;38340;52.964;6.086;2022-09-01T02:54:14;5.18;;;3.45;;
52414;SDS011;38340;52.964;6.086;2022-09-01T02:56:43;4.25;;;3.00;;
52414;SDS011;38340;52.964;6.086;2022-09-01T02:59:12;8.82;;;3.80;;
52414;SDS011;38340;52.964;6.086;2022-09-01T03:01:40;6.28;;;3.40;;
52414;SDS011;38340;52.964;6.086;2022-09-01T03:04:06;5.80;;;3.00;;
52414;SDS011;38340;52.964;6.086;2022-09-01T03:06:34;5.07;;;3.40;;
52414;SDS011;38340;52.964;6.086;2022-09-01T03:09:03;5.22;;;3.13;;
52414;SDS011;38340;52.964;6.086;2022-09-01T03:11:32;5.85;;;3.35;;
52414;SDS011;38340;52.964;6.086;2022-09-01T03:13:59;4.57;;;3.25;;
52414;SDS011;38340;52.964;6.086;2022-09-01T03:16:25;5.57;;;3.40;;
52414;SDS011;38340;52.964;6.086;2022-09-01T03:18:51;4.45;;;3.25;;
52414;SDS011;38340;52.964;6.086;2022-09-01T03:21:18;6.03;;;3.40;;
52414;SDS011;38340;52.964;6.086;2022-09-01T03:23:45;5.25;;;3.53;;
52414;SDS011;38340;52.964;6.086;2022-09-01T03:26:12;4.15;;;2.92;;
52414;SDS011;38340;52.964;6.086;2022-09-01T03:28:38;5.88;;;3.60;;
52414;SDS011;38340;52.964;6.086;2022-09-01T03:31:05;3.63;;;2.95;;
52414;SDS011;38340;52.964;6.086;2022-09-01T03:33:31;3.92;;;3.17;;
52414;SDS011;38340;52.964;6.086;2022-09-01T03:35:58;3.63;;;3.08;;
52414;SDS011;38340;52.964;6.086;2022-09-01T03:38:25;4.30;;;3.22;;
52414;SDS011;38340;52.964;6.086;2022-09-01T03:40:52;5.75;;;3.20;;
52414;SDS011;38340;52.964;6.086;2022-09-01T03:43:23;5.40;;;3.35;;
52414;SDS011;38340;52.964;6.086;2022-09-01T03:45:51;5.30;;;3.10;;
52414;SDS011;38340;52.964;6.086;2022-09-01T03:48:19;6.80;;;3.58;;
52414;SDS011;38340;52.964;6.086;2022-09-01T03:50:46;4.35;;;3.03;;
52414;SDS011;38340;52.964;6.086;2022-09-01T03:53:13;6.82;;;3.45;;
52414;SDS011;38340;52.964;6.086;2022-09-01T03:55:42;7.18;;;3.30;;
52414;SDS011;38340;52.964;6.086;2022-09-01T03:58:09;4.28;;;3.00;;
52414;SDS011;38340;52.964;6.086;2022-09-01T04:00:38;3.47;;;2.80;;
52414;SDS011;38340;52.964;6.086;2022-09-01T04:03:07;4.75;;;3.05;;
52414;SDS011;38340;52.964;6.086;2022-09-01T04:05:35;4.55;;;3.15;;
52414;SDS011;38340;52.964;6.086;2022-09-01T04:08:03;3.85;;;2.92;;
52414;SDS011;38340;52.964;6.086;2022-09-01T04:10:31;5.10;;;3.55;;
52414;SDS011;38340;52.964;6.086;2022-09-01T04:12:59;3.70;;;2.80;;
52414;SDS011;38340;52.964;6.086;2022-09-01T04:15:25;7.13;;;3.00;;
52414;SDS011;38340;52.964;6.086;2022-09-01T04:17:52;8.55;;;2.95;;
52414;SDS011;38340;52.964;6.086;2022-09-01T04:20:45;6.35;;;2.75;;
52414;SDS011;38340;52.964;6.086;2022-09-01T04:23:31;4.45;;;2.80;;
52414;SDS011;38340;52.964;6.086;2022-09-01T04:26:02;4.07;;;3.30;;
52414;SDS011;38340;52.964;6.086;2022-09-01T04:28:34;5.47;;;3.28;;
52414;SDS011;38340;52.964;6.086;2022-09-01T04:31:03;7.05;;;3.35;;
52414;SDS011;38340;52.964;6.086;2022-09-01T04:33:33;4.53;;;3.20;;
52414;SDS011;38340;52.964;6.086;2022-09-01T04:38:54;7.15;;;3.58;;
52414;SDS011;38340;52.964;6.086;2022-09-01T04:41:26;9.05;;;3.40;;
52414;SDS011;38340;52.964;6.086;2022-09-01T04:43:56;4.35;;;3.22;;
52414;SDS011;38340;52.964;6.086;2022-09-01T04:46:26;5.18;;;3.22;;
52414;SDS011;38340;52.964;6.086;2022-09-01T04:48:55;6.45;;;3.38;;
52414;SDS011;38340;52.964;6.086;2022-09-01T04:51:21;5.05;;;3.70;;
52414;SDS011;38340;52.964;6.086;2022-09-01T04:53:52;4.47;;;3.58;;
52414;SDS011;38340;52.964;6.086;2022-09-01T04:56:20;6.18;;;3.00;;
52414;SDS011;38340;52.964;6.086;2022-09-01T04:58:47;5.55;;;3.13;;
52414;SDS011;38340;52.964;6.086;2022-09-01T05:01:24;3.70;;;3.28;;
52414;SDS011;38340;52.964;6.086;2022-09-01T05:03:51;5.03;;;3.50;;
52414;SDS011;38340;52.964;6.086;2022-09-01T05:06:25;4.40;;;3.42;;
52414;SDS011;38340;52.964;6.086;2022-09-01T05:08:52;7.43;;;4.03;;
52414;SDS011;38340;52.964;6.086;2022-09-01T05:11:20;4.63;;;3.25;;
52414;SDS011;38340;52.964;6.086;2022-09-01T05:13:48;4.40;;;3.33;;
52414;SDS011;38340;52.964;6.086;2022-09-01T05:16:18;5.05;;;3.17;;
52414;SDS011;38340;52.964;6.086;2022-09-01T05:18:46;5.80;;;3.33;;
52414;SDS011;38340;52.964;6.086;2022-09-01T05:21:14;4.68;;;3.13;;
52414;SDS011;38340;52.964;6.086;2022-09-01T05:23:44;6.05;;;4.00;;
52414;SDS011;38340;52.964;6.086;2022-09-01T05:26:18;5.55;;;3.05;;
52414;SDS011;38340;52.964;6.086;2022-09-01T05:28:49;3.95;;;2.83;;
52414;SDS011;38340;52.964;6.086;2022-09-01T05:31:18;10.00;;;4.07;;
52414;SDS011;38340;52.964;6.086;2022-09-01T05:33:45;4.70;;;3.60;;
52414;SDS011;38340;52.964;6.086;2022-09-01T05:36:13;6.45;;;3.42;;
52414;SDS011;38340;52.964;6.086;2022-09-01T05:38:42;9.50;;;3.85;;
52414;SDS011;38340;52.964;6.086;2022-09-01T05:41:09;6.95;;;3.60;;
52414;SDS011;38340;52.964;6.086;2022-09-01T05:43:39;5.80;;;3.20;;
52414;SDS011;38340;52.964;6.086;2022-09-01T05:46:11;5.20;;;3.10;;
52414;SDS011;38340;52.964;6.086;2022-09-01T05:48:41;4.72;;;3.03;;
52414;SDS011;38340;52.964;6.086;2022-09-01T05:51:08;4.20;;;3.00;;
52414;SDS011;38340;52.964;6.086;2022-09-01T05:53:35;4.57;;;3.17;;
52414;SDS011;38340;52.964;6.086;2022-09-01T05:56:05;4.18;;;3.40;;
52414;SDS011;38340;52.964;6.086;2022-09-01T05:58:33;4.80;;;3.30;;
52414;SDS011;38340;52.964;6.086;2022-09-01T06:01:00;3.78;;;2.97;;
52414;SDS011;38340;52.964;6.086;2022-09-01T06:03:26;10.27;;;3.97;;
52414;SDS011;38340;52.964;6.086;2022-09-01T06:05:53;6.63;;;3.75;;
52414;SDS011;38340;52.964;6.086;2022-09-01T06:08:20;6.55;;;3.42;;
52414;SDS011;38340;52.964;6.086;2022-09-01T06:10:49;23.73;;;5.50;;
52414;SDS011;38340;52.964;6.086;2022-09-01T06:13:16;8.15;;;3.63;;
52414;SDS011;38340;52.964;6.086;2022-09-01T06:15:46;4.55;;;3.15;;
52414;SDS011;38340;52.964;6.086;2022-09-01T06:18:13;4.63;;;3.10;;
52414;SDS011;38340;52.964;6.086;2022-09-01T06:20:41;7.53;;;3.25;;
52414;SDS011;38340;52.964;6.086;2022-09-01T06:23:09;4.72;;;3.40;;
52414;SDS011;38340;52.964;6.086;2022-09-01T06:25:38;6.30;;;3.30;;
52414;SDS011;38340;52.964;6.086;2022-09-01T06:28:13;7.47;;;2.97;;
52414;SDS011;38340;52.964;6.086;2022-09-01T06:30:44;5.35;;;3.28;;
52414;SDS011;38340;52.964;6.086;2022-09-01T06:33:12;5.63;;;3.60;;
52414;SDS011;38340;52.964;6.086;2022-09-01T06:35:39;4.10;;;3.13;;
52414;SDS011;38340;52.964;6.086;2022-09-01T06:38:07;4.57;;;3.25;;
52414;SDS011;38340;52.964;6.086;2022-09-01T06:40:34;6.78;;;3.60;;
52414;SDS011;38340;52.964;6.086;2022-09-01T06:43:05;7.25;;;3.80;;
52414;SDS011;38340;52.964;6.086;2022-09-01T06:45:32;7.00;;;3.55;;
52414;SDS011;38340;52.964;6.086;2022-09-01T06:48:09;6.00;;;3.40;;
52414;SDS011;38340;52.964;6.086;2022-09-01T06:50:40;6.80;;;3.10;;
52414;SDS011;38340;52.964;6.086;2022-09-01T06:53:07;4.53;;;2.88;;
52414;SDS011;38340;52.964;6.086;2022-09-01T06:55:38;6.25;;;3.50;;
52414;SDS011;38340;52.964;6.086;2022-09-01T06:58:09;7.78;;;3.22;;
52414;SDS011;38340;52.964;6.086;2022-09-01T07:00:37;5.80;;;3.30;;
52414;SDS011;38340;52.964;6.086;2022-09-01T07:03:09;14.05;;;3.30;;
52414;SDS011;38340;52.964;6.086;2022-09-01T07:05:42;5.18;;;3.10;;
52414;SDS011;38340;52.964;6.086;2022-09-01T07:08:10;3.75;;;2.97;;
52414;SDS011;38340;52.964;6.086;2022-09-01T07:10:45;4.57;;;2.88;;
52414;SDS011;38340;52.964;6.086;2022-09-01T07:13:15;5.03;;;3.40;;
52414;SDS011;38340;52.964;6.086;2022-09-01T07:15:47;5.82;;;2.88;;
52414;SDS011;38340;52.964;6.086;2022-09-01T07:18:14;5.15;;;3.17;;
52414;SDS011;38340;52.964;6.086;2022-09-01T07:20:45;4.07;;;3.03;;
52414;SDS011;38340;52.964;6.086;2022-09-01T07:23:12;3.33;;;2.80;;
52414;SDS011;38340;52.964;6.086;2022-09-01T07:25:41;5.20;;;2.80;;
52414;SDS011;38340;52.964;6.086;2022-09-01T07:28:09;4.82;;;2.92;;
52414;SDS011;38340;52.964;6.086;2022-09-01T07:30:47;6.63;;;2.85;;
52414;SDS011;38340;52.964;6.086;2022-09-01T07:33:15;3.50;;;2.65;;
52414;SDS011;38340;52.964;6.086;2022-09-01T07:35:45;6.00;;;2.97;;
52414;SDS011;38340;52.964;6.086;2022-09-01T07:38:11;6.55;;;3.17;;
52414;SDS011;38340;52.964;6.086;2022-09-01T07:40:41;3.83;;;2.70;;
52414;SDS011;38340;52.964;6.086;2022-09-01T07:43:07;5.13;;;2.85;;
52414;SDS011;38340;52.964;6.086;2022-09-01T07:45:42;6.03;;;2.78;;
52414;SDS011;38340;52.964;6.086;2022-09-01T07:48:11;4.95;;;2.90;;
52414;SDS011;38340;52.964;6.086;2022-09-01T07:50:40;4.00;;;2.58;;
52414;SDS011;38340;52.964;6.086;2022-09-01T07:53:19;2.97;;;2.30;;
52414;SDS011;38340;52.964;6.086;2022-09-01T07:55:50;5.85;;;2.85;;
52414;SDS011;38340;52.964;6.086;2022-09-01T07:58:22;4.82;;;2.50;;
52414;SDS011;38340;52.964;6.086;2022-09-01T08:00:50;6.68;;;2.80;;
52414;SDS011;38340;52.964;6.086;2022-09-01T08:03:18;3.20;;;2.45;;
52414;SDS011;38340;52.964;6.086;2022-09-01T08:05:45;4.40;;;2.85;;
52414;SDS011;38340;52.964;6.086;2022-09-01T08:08:13;3.65;;;2.78;;
52414;SDS011;38340;52.964;6.086;2022-09-01T08:10:39;5.50;;;2.85;;
52414;SDS011;38340;52.964;6.086;2022-09-01T08:13:06;4.93;;;2.40;;
52414;SDS011;38340;52.964;6.086;2022-09-01T08:15:32;3.67;;;2.50;;
52414;SDS011;38340;52.964;6.086;2022-09-01T08:17:58;7.82;;;2.60;;
52414;SDS011;38340;52.964;6.086;2022-09-01T08:20:24;4.53;;;2.67;;
52414;SDS011;38340;52.964;6.086;2022-09-01T08:22:49;4.60;;;2.58;;
52414;SDS011;38340;52.964;6.086;2022-09-01T08:25:15;4.40;;;2.38;;
52414;SDS011;38340;52.964;6.086;2022-09-01T08:27:41;3.70;;;2.40;;
52414;SDS011;38340;52.964;6.086;2022-09-01T08:30:08;4.00;;;2.70;;
52414;SDS011;38340;52.964;6.086;2022-09-01T08:32:37;4.60;;;2.70;;
52414;SDS011;38340;52.964;6.086;2022-09-01T08:35:07;3.47;;;2.60;;
52414;SDS011;38340;52.964;6.086;2022-09-01T08:37:34;9.05;;;2.72;;
52414;SDS011;38340;52.964;6.086;2022-09-01T08:40:01;8.02;;;2.80;;
52414;SDS011;38340;52.964;6.086;2022-09-01T08:42:36;4.18;;;2.35;;
52414;SDS011;38340;52.964;6.086;2022-09-01T08:47:56;8.27;;;2.90;;
52414;SDS011;38340;52.964;6.086;2022-09-01T08:50:33;3.33;;;2.25;;
52414;SDS011;38340;52.964;6.086;2022-09-01T08:53:04;2.85;;;1.98;;
52414;SDS011;38340;52.964;6.086;2022-09-01T08:55:47;3.28;;;1.90;;
52414;SDS011;38340;52.964;6.086;2022-09-01T08:58:18;4.05;;;2.03;;
52414;SDS011;38340;52.964;6.086;2022-09-01T09:00:47;3.28;;;1.83;;
52414;SDS011;38340;52.964;6.086;2022-09-01T09:06:34;5.85;;;2.38;;
52414;SDS011;38340;52.964;6.086;2022-09-01T09:09:20;4.70;;;2.42;;
52414;SDS011;38340;52.964;6.086;2022-09-01T09:17:14;2.70;;;1.70;;
52414;SDS011;38340;52.964;6.086;2022-09-01T09:19:44;3.85;;;1.95;;
52414;SDS011;38340;52.964;6.086;2022-09-01T09:22:13;3.60;;;1.73;;
52414;SDS011;38340;52.964;6.086;2022-09-01T09:27:49;4.95;;;1.67;;
52414;SDS011;38340;52.964;6.086;2022-09-01T09:30:10;2.90;;;1.70;;
52414;SDS011;38340;52.964;6.086;2022-09-01T09:32:52;3.05;;;1.30;;
52414;SDS011;38340;52.964;6.086;2022-09-01T09:35:24;2.22;;;1.35;;
52414;SDS011;38340;52.964;6.086;2022-09-01T09:40:54;3.35;;;1.75;;
52414;SDS011;38340;52.964;6.086;2022-09-01T09:43:42;2.90;;;1.73;;
52414;SDS011;38340;52.964;6.086;2022-09-01T09:51:31;2.83;;;1.30;;
52414;SDS011;38340;52.964;6.086;2022-09-01T09:56:47;4.85;;;1.73;;
52414;SDS011;38340;52.964;6.086;2022-09-01T09:59:28;5.10;;;1.55;;
52414;SDS011;38340;52.964;6.086;2022-09-01T10:01:58;5.68;;;1.55;;
52414;SDS011;38340;52.964;6.086;2022-09-01T10:04:38;4.03;;;1.85;;
52414;SDS011;38340;52.964;6.086;2022-09-01T10:09:56;3.55;;;1.23;;
52414;SDS011;38340;52.964;6.086;2022-09-01T10:12:24;2.38;;;1.45;;
52414;SDS011;38340;52.964;6.086;2022-09-01T10:15:02;2.75;;;1.58;;
52414;SDS011;38340;52.964;6.086;2022-09-01T10:17:37;3.03;;;1.25;;
52414;SDS011;38340;52.964;6.086;2022-09-01T10:20:11;3.17;;;1.23;;
52414;SDS011;38340;52.964;6.086;2022-09-01T10:22:41;2.67;;;1.40;;
52414;SDS011;38340;52.964;6.086;2022-09-01T10:25:08;3.40;;;1.38;;
52414;SDS011;38340;52.964;6.086;2022-09-01T10:27:43;2.30;;;1.20;;
52414;SDS011;38340;52.964;6.086;2022-09-01T10:30:14;3.35;;;1.40;;
52414;SDS011;38340;52.964;6.086;2022-09-01T10:32:46;2.47;;;1.20;;
52414;SDS011;38340;52.964;6.086;2022-09-01T10:37:54;2.47;;;1.30;;
52414;SDS011;38340;52.964;6.086;2022-09-01T10:42:55;1.95;;;1.10;;
52414;SDS011;38340;52.964;6.086;2022-09-01T10:45:30;2.33;;;1.23;;
52414;SDS011;38340;52.964;6.086;2022-09-01T10:48:21;2.05;;;1.30;;
52414;SDS011;38340;52.964;6.086;2022-09-01T10:50:57;2.17;;;1.05;;
52414;SDS011;38340;52.964;6.086;2022-09-01T10:56:22;3.30;;;1.20;;
52414;SDS011;38340;52.964;6.086;2022-09-01T10:59:27;2.28;;;1.17;;
52414;SDS011;38340;52.964;6.086;2022-09-01T11:04:20;3.13;;;1.10;;
52414;SDS011;38340;52.964;6.086;2022-09-01T11:06:56;4.63;;;1.60;;
52414;SDS011;38340;52.964;6.086;2022-09-01T11:14:46;2.78;;;1.30;;
52414;SDS011;38340;52.964;6.086;2022-09-01T11:17:36;2.55;;;1.40;;
52414;SDS011;38340;52.964;6.086;2022-09-01T11:30:44;2.67;;;1.00;;
52414;SDS011;38340;52.964;6.086;2022-09-01T11:36:06;3.83;;;1.13;;
52414;SDS011;38340;52.964;6.086;2022-09-01T11:38:47;3.08;;;0.90;;
52414;SDS011;38340;52.964;6.086;2022-09-01T11:41:20;1.63;;;0.88;;
52414;SDS011;38340;52.964;6.086;2022-09-01T11:43:48;1.85;;;1.00;;
52414;SDS011;38340;52.964;6.086;2022-09-01T11:46:21;2.53;;;1.42;;
52414;SDS011;38340;52.964;6.086;2022-09-01T11:48:51;3.53;;;1.33;;
52414;SDS011;38340;52.964;6.086;2022-09-01T11:51:17;3.80;;;1.00;;
52414;SDS011;38340;52.964;6.086;2022-09-01T11:53:43;4.53;;;1.20;;
52414;SDS011;38340;52.964;6.086;2022-09-01T11:56:16;1.48;;;1.00;;
52414;SDS011;38340;52.964;6.086;2022-09-01T11:58:44;2.03;;;1.10;;
52414;SDS011;38340;52.964;6.086;2022-09-01T12:01:20;4.53;;;1.15;;
52414;SDS011;38340;52.964;6.086;2022-09-01T12:03:49;6.53;;;1.42;;
52414;SDS011;38340;52.964;6.086;2022-09-01T12:06:18;3.70;;;0.98;;
52414;SDS011;38340;52.964;6.086;2022-09-01T12:08:57;2.13;;;1.02;;
52414;SDS011;38340;52.964;6.086;2022-09-01T12:11:30;2.80;;;1.23;;
52414;SDS011;38340;52.964;6.086;2022-09-01T12:16:38;1.90;;;1.08;;
52414;SDS011;38340;52.964;6.086;2022-09-01T12:19:06;4.32;;;1.23;;
52414;SDS011;38340;52.964;6.086;2022-09-01T12:21:37;4.00;;;0.90;;
52414;SDS011;38340;52.964;6.086;2022-09-01T12:26:42;2.28;;;1.13;;
52414;SDS011;38340;52.964;6.086;2022-09-01T12:29:09;11.40;;;1.30;;
52414;SDS011;38340;52.964;6.086;2022-09-01T12:31:38;3.47;;;1.10;;
52414;SDS011;38340;52.964;6.086;2022-09-01T12:34:20;5.00;;;1.00;;
52414;SDS011;38340;52.964;6.086;2022-09-01T12:37:10;0.88;;;0.70;;
52414;SDS011;38340;52.964;6.086;2022-09-01T12:39:43;4.05;;;1.20;;
52414;SDS011;38340;52.964;6.086;2022-09-01T12:44:58;2.38;;;0.75;;
52414;SDS011;38340;52.964;6.086;2022-09-01T12:49:58;3.83;;;1.00;;
52414;SDS011;38340;52.964;6.086;2022-09-01T12:52:26;5.65;;;1.30;;
52414;SDS011;38340;52.964;6.086;2022-09-01T12:57:29;5.72;;;1.00;;
52414;SDS011;38340;52.964;6.086;2022-09-01T13:05:33;5.97;;;0.95;;
52414;SDS011;38340;52.964;6.086;2022-09-01T13:10:52;2.20;;;1.00;;
52414;SDS011;38340;52.964;6.086;2022-09-01T13:13:23;5.20;;;1.30;;
52414;SDS011;38340;52.964;6.086;2022-09-01T13:15:51;5.68;;;1.38;;
52414;SDS011;38340;52.964;6.086;2022-09-01T13:18:20;1.85;;;1.00;;
52414;SDS011;38340;52.964;6.086;2022-09-01T13:20:47;1.90;;;1.00;;
52414;SDS011;38340;52.964;6.086;2022-09-01T13:23:14;3.33;;;1.05;;
52414;SDS011;38340;52.964;6.086;2022-09-01T13:25:41;1.90;;;1.20;;
52414;SDS011;38340;52.964;6.086;2022-09-01T13:28:10;2.67;;;1.25;;
52414;SDS011;38340;52.964;6.086;2022-09-01T13:30:37;2.30;;;1.15;;
52414;SDS011;38340;52.964;6.086;2022-09-01T13:33:04;2.60;;;1.00;;
52414;SDS011;38340;52.964;6.086;2022-09-01T13:35:29;1.45;;;1.02;;
52414;SDS011;38340;52.964;6.086;2022-09-01T13:37:55;4.15;;;1.05;;
52414;SDS011;38340;52.964;6.086;2022-09-01T13:40:21;2.88;;;0.93;;
52414;SDS011;38340;52.964;6.086;2022-09-01T13:42:48;1.92;;;1.00;;
52414;SDS011;38340;52.964;6.086;2022-09-01T13:45:16;2.63;;;0.90;;
52414;SDS011;38340;52.964;6.086;2022-09-01T13:47:44;2.70;;;0.95;;
52414;SDS011;38340;52.964;6.086;2022-09-01T13:50:12;2.10;;;0.93;;
52414;SDS011;38340;52.964;6.086;2022-09-01T13:52:41;2.67;;;1.00;;
52414;SDS011;38340;52.964;6.086;2022-09-01T13:55:12;1.77;;;0.98;;
52414;SDS011;38340;52.964;6.086;2022-09-01T13:57:40;1.52;;;0.90;;
52414;SDS011;38340;52.964;6.086;2022-09-01T14:00:10;2.55;;;1.10;;
52414;SDS011;38340;52.964;6.086;2022-09-01T14:02:39;2.22;;;0.88;;
52414;SDS011;38340;52.964;6.086;2022-09-01T14:05:07;2.67;;;1.02;;
52414;SDS011;38340;52.964;6.086;2022-09-01T14:07:33;2.03;;;0.93;;
52414;SDS011;38340;52.964;6.086;2022-09-01T14:09:59;2.42;;;0.90;;
52414;SDS011;38340;52.964;6.086;2022-09-01T14:12:25;2.90;;;0.95;;
52414;SDS011;38340;52.964;6.086;2022-09-01T14:14:51;3.72;;;1.00;;
52414;SDS011;38340;52.964;6.086;2022-09-01T14:17:16;3.95;;;1.05;;
52414;SDS011;38340;52.964;6.086;2022-09-01T14:19:47;2.83;;;1.13;;
52414;SDS011;38340;52.964;6.086;2022-09-01T14:22:14;3.05;;;1.33;;
52414;SDS011;38340;52.964;6.086;2022-09-01T14:24:40;5.40;;;1.20;;
52414;SDS011;38340;52.964;6.086;2022-09-01T14:27:05;1.60;;;0.80;;
52414;SDS011;38340;52.964;6.086;2022-09-01T14:29:31;1.92;;;1.00;;
52414;SDS011;38340;52.964;6.086;2022-09-01T14:31:57;2.30;;;1.00;;
52414;SDS011;38340;52.964;6.086;2022-09-01T14:34:23;2.75;;;0.88;;
52414;SDS011;38340;52.964;6.086;2022-09-01T14:36:52;1.45;;;0.85;;
52414;SDS011;38340;52.964;6.086;2022-09-01T14:39:20;4.47;;;1.50;;
52414;SDS011;38340;52.964;6.086;2022-09-01T14:41:46;2.97;;;0.93;;
52414;SDS011;38340;52.964;6.086;2022-09-01T14:44:11;2.33;;;1.00;;
52414;SDS011;38340;52.964;6.086;2022-09-01T14:46:37;3.78;;;1.15;;
52414;SDS011;38340;52.964;6.086;2022-09-01T14:49:04;3.58;;;0.90;;
52414;SDS011;38340;52.964;6.086;2022-09-01T14:51:30;3.38;;;1.25;;
52414;SDS011;38340;52.964;6.086;2022-09-01T14:53:56;2.22;;;1.42;;
52414;SDS011;38340;52.964;6.086;2022-09-01T14:56:22;9.15;;;1.10;;
52414;SDS011;38340;52.964;6.086;2022-09-01T14:58:49;1.50;;;1.00;;
52414;SDS011;38340;52.964;6.086;2022-09-01T15:01:17;1.25;;;0.77;;
52414;SDS011;38340;52.964;6.086;2022-09-01T15:03:49;6.75;;;1.30;;
52414;SDS011;38340;52.964;6.086;2022-09-01T15:06:15;2.17;;;1.17;;
52414;SDS011;38340;52.964;6.086;2022-09-01T15:08:43;4.07;;;1.10;;
52414;SDS011;38340;52.964;6.086;2022-09-01T15:11:10;6.22;;;1.08;;
52414;SDS011;38340;52.964;6.086;2022-09-01T15:13:38;3.20;;;1.15;;
52414;SDS011;38340;52.964;6.086;2022-09-01T15:16:04;3.88;;;1.00;;
52414;SDS011;38340;52.964;6.086;2022-09-01T15:18:36;1.35;;;0.80;;
52414;SDS011;38340;52.964;6.086;2022-09-01T15:21:03;3.33;;;1.13;;
52414;SDS011;38340;52.964;6.086;2022-09-01T15:23:29;1.90;;;1.05;;
52414;SDS011;38340;52.964;6.086;2022-09-01T15:25:55;4.57;;;1.00;;
52414;SDS011;38340;52.964;6.086;2022-09-01T15:28:24;3.50;;;1.00;;
52414;SDS011;38340;52.964;6.086;2022-09-01T15:30:51;2.50;;;1.05;;
52414;SDS011;38340;52.964;6.086;2022-09-01T15:33:18;4.95;;;1.00;;
52414;SDS011;38340;52.964;6.086;2022-09-01T15:35:44;4.80;;;1.02;;
52414;SDS011;38340;52.964;6.086;2022-09-01T15:38:11;4.95;;;1.10;;
52414;SDS011;38340;52.964;6.086;2022-09-01T15:40:39;2.00;;;0.90;;
52414;SDS011;38340;52.964;6.086;2022-09-01T15:43:06;2.63;;;1.10;;
52414;SDS011;38340;52.964;6.086;2022-09-01T15:45:32;2.00;;;1.27;;
52414;SDS011;38340;52.964;6.086;2022-09-01T15:47:57;2.53;;;1.25;;
52414;SDS011;38340;52.964;6.086;2022-09-01T15:50:24;1.77;;;0.90;;
52414;SDS011;38340;52.964;6.086;2022-09-01T15:55:25;2.63;;;1.10;;
52414;SDS011;38340;52.964;6.086;2022-09-01T15:57:53;2.67;;;1.00;;
52414;SDS011;38340;52.964;6.086;2022-09-01T16:00:20;3.17;;;1.00;;
52414;SDS011;38340;52.964;6.086;2022-09-01T16:02:47;17.33;;;2.22;;
52414;SDS011;38340;52.964;6.086;2022-09-01T16:05:12;2.33;;;0.90;;
52414;SDS011;38340;52.964;6.086;2022-09-01T16:07:39;4.45;;;1.17;;
52414;SDS011;38340;52.964;6.086;2022-09-01T16:10:05;1.67;;;1.00;;
52414;SDS011;38340;52.964;6.086;2022-09-01T16:12:35;1.75;;;1.00;;
52414;SDS011;38340;52.964;6.086;2022-09-01T16:15:01;2.75;;;0.90;;
52414;SDS011;38340;52.964;6.086;2022-09-01T16:17:34;3.05;;;1.10;;
52414;SDS011;38340;52.964;6.086;2022-09-01T16:20:24;2.30;;;1.10;;
52414;SDS011;38340;52.964;6.086;2022-09-01T16:22:55;2.03;;;1.00;;
52414;SDS011;38340;52.964;6.086;2022-09-01T16:25:31;1.95;;;1.00;;
52414;SDS011;38340;52.964;6.086;2022-09-01T16:28:02;7.35;;;1.13;;
52414;SDS011;38340;52.964;6.086;2022-09-01T16:30:34;3.95;;;1.20;;
52414;SDS011;38340;52.964;6.086;2022-09-01T16:33:01;3.60;;;1.10;;